sensor_id;sensor_type;location;lat;lon;timestamp;temperature;humidity
19017;DHT22;9641;51.494;6.670;2022-12-28T00:00:15;5.80;1.00
19017;DHT22;9641;51.494;6.670;2022-12-28T00:02:42;5.80;1.00
19017;DHT22;9641;51.494;6.670;2022-12-28T00:05:09;5.90;1.00
19017;DHT22;9641;51.494;6.670;2022-12-28T00:07:36;5.90;1.00
19017;DHT22;9641;51.494;6.670;2022-12-28T00:10:03;5.90;1.00
19017;DHT22;9641;51.494;6.670;2022-12-28T00:12:31;5.90;1.00
19017;DHT22;9641;51.494;6.670;2022-12-28T00:14:58;6.00;1.00
19017;DHT22;9641;51.494;6.670;2022-12-28T00:17:25;6.00;1.00
19017;DHT22;9641;51.494;6.670;2022-12-28T00:19:52;5.90;11.90
19017;DHT22;9641;51.494;6.670;2022-12-28T00:22:19;5.90;36.00
19017;DHT22;9641;51.494;6.670;2022-12-28T00:24:46;5.90;67.50
19017;DHT22;9641;51.494;6.670;2022-12-28T00:27:13;5.80;94.50
19017;DHT22;9641;51.494;6.670;2022-12-28T00:29:41;5.70;99.90
19017;DHT22;9641;51.494;6.670;2022-12-28T00:32:08;5.70;99.90
19017;DHT22;9641;51.494;6.670;2022-12-28T00:34:35;5.70;99.90
19017;DHT22;9641;51.494;6.670;2022-12-28T00:37:02;5.70;99.90
19017;DHT22;9641;51.494;6.670;2022-12-28T00:39:29;5.60;99.90
19017;DHT22;9641;51.494;6.670;2022-12-28T00:41:56;5.70;99.90
19017;DHT22;9641;51.494;6.670;2022-12-28T00:44:23;5.60;99.90
19017;DHT22;9641;51.494;6.670;2022-12-28T00:46:51;5.60;99.90
19017;DHT22;9641;51.494;6.670;2022-12-28T00:49:18;5.60;99.90
19017;DHT22;9641;51.494;6.670;2022-12-28T00:51:45;5.60;99.90
19017;DHT22;9641;51.494;6.670;2022-12-28T00:54:12;5.60;99.90
19017;DHT22;9641;51.494;6.670;2022-12-28T00:56:39;5.70;99.90
19017;DHT22;9641;51.494;6.670;2022-12-28T00:59:07;5.70;99.90
19017;DHT22;9641;51.494;6.670;2022-12-28T01:01:35;5.70;99.90
19017;DHT22;9641;51.494;6.670;2022-12-28T01:04:03;5.70;99.90
19017;DHT22;9641;51.494;6.670;2022-12-28T01:06:30;5.70;99.90
19017;DHT22;9641;51.494;6.670;2022-12-28T01:08:57;5.70;99.90
19017;DHT22;9641;51.494;6.670;2022-12-28T01:11:27;5.70;99.90
19017;DHT22;9641;51.494;6.670;2022-12-28T01:13:56;5.60;99.90
19017;DHT22;9641;51.494;6.670;2022-12-28T01:16:25;5.70;99.90
19017;DHT22;9641;51.494;6.670;2022-12-28T01:18:55;5.70;99.90
19017;DHT22;9641;51.494;6.670;2022-12-28T01:21:24;5.70;99.90
19017;DHT22;9641;51.494;6.670;2022-12-28T01:23:53;5.60;99.90
19017;DHT22;9641;51.494;6.670;2022-12-28T01:26:21;5.60;99.90
19017;DHT22;9641;51.494;6.670;2022-12-28T01:28:48;5.60;99.90
19017;DHT22;9641;51.494;6.670;2022-12-28T01:31:16;5.60;99.90
19017;DHT22;9641;51.494;6.670;2022-12-28T01:33:44;5.70;99.90
19017;DHT22;9641;51.494;6.670;2022-12-28T01:36:13;5.70;99.90
19017;DHT22;9641;51.494;6.670;2022-12-28T01:38:42;5.70;99.90
19017;DHT22;9641;51.494;6.670;2022-12-28T01:41:11;5.80;99.90
19017;DHT22;9641;51.494;6.670;2022-12-28T01:43:40;5.80;99.90
19017;DHT22;9641;51.494;6.670;2022-12-28T01:46:08;5.80;99.90
19017;DHT22;9641;51.494;6.670;2022-12-28T01:48:41;5.90;99.90
19017;DHT22;9641;51.494;6.670;2022-12-28T01:51:10;5.90;99.90
19017;DHT22;9641;51.494;6.670;2022-12-28T01:53:37;6.00;99.90
19017;DHT22;9641;51.494;6.670;2022-12-28T01:56:06;6.00;99.90
19017;DHT22;9641;51.494;6.670;2022-12-28T01:58:34;6.00;99.90
19017;DHT22;9641;51.494;6.670;2022-12-28T02:01:02;6.00;99.90
19017;DHT22;9641;51.494;6.670;2022-12-28T02:03:32;6.10;99.90
19017;DHT22;9641;51.494;6.670;2022-12-28T02:06:04;6.10;99.90
19017;DHT22;9641;51.494;6.670;2022-12-28T02:08:38;6.20;99.90
19017;DHT22;9641;51.494;6.670;2022-12-28T02:11:11;6.20;99.90
19017;DHT22;9641;51.494;6.670;2022-12-28T02:13:42;6.30;99.90
19017;DHT22;9641;51.494;6.670;2022-12-28T02:16:09;6.30;99.90
19017;DHT22;9641;51.494;6.670;2022-12-28T02:18:37;6.30;99.90
19017;DHT22;9641;51.494;6.670;2022-12-28T02:21:28;6.30;99.90
19017;DHT22;9641;51.494;6.670;2022-12-28T02:24:29;6.40;99.90
19017;DHT22;9641;51.494;6.670;2022-12-28T02:27:05;6.40;99.90
19017;DHT22;9641;51.494;6.670;2022-12-28T02:30:03;6.50;99.90
19017;DHT22;9641;51.494;6.670;2022-12-28T02:32:43;6.50;99.90
19017;DHT22;9641;51.494;6.670;2022-12-28T02:35:14;6.50;99.90
19017;DHT22;9641;51.494;6.670;2022-12-28T02:37:46;6.60;99.90
19017;DHT22;9641;51.494;6.670;2022-12-28T02:40:16;6.70;99.90
19017;DHT22;9641;51.494;6.670;2022-12-28T02:42:45;6.70;99.90
19017;DHT22;9641;51.494;6.670;2022-12-28T02:45:32;6.80;99.90
19017;DHT22;9641;51.494;6.670;2022-12-28T02:48:17;6.80;99.90
19017;DHT22;9641;51.494;6.670;2022-12-28T02:51:10;6.90;99.90
19017;DHT22;9641;51.494;6.670;2022-12-28T02:53:49;7.00;99.90
19017;DHT22;9641;51.494;6.670;2022-12-28T02:56:27;7.10;99.90
19017;DHT22;9641;51.494;6.670;2022-12-28T02:59:18;7.10;99.90
19017;DHT22;9641;51.494;6.670;2022-12-28T03:02:19;7.20;99.90
19017;DHT22;9641;51.494;6.670;2022-12-28T03:05:06;7.20;99.90
19017;DHT22;9641;51.494;6.670;2022-12-28T03:07:39;7.30;99.90
19017;DHT22;9641;51.494;6.670;2022-12-28T03:10:30;7.40;99.90
19017;DHT22;9641;51.494;6.670;2022-12-28T03:13:01;7.40;99.90
19017;DHT22;9641;51.494;6.670;2022-12-28T03:15:34;7.50;99.90
19017;DHT22;9641;51.494;6.670;2022-12-28T03:18:06;7.50;99.90
19017;DHT22;9641;51.494;6.670;2022-12-28T03:20:54;7.50;99.90
19017;DHT22;9641;51.494;6.670;2022-12-28T03:23:41;7.50;99.90
19017;DHT22;9641;51.494;6.670;2022-12-28T03:26:28;7.50;99.90
19017;DHT22;9641;51.494;6.670;2022-12-28T03:29:16;7.60;99.90
19017;DHT22;9641;51.494;6.670;2022-12-28T03:32:03;7.60;99.90
19017;DHT22;9641;51.494;6.670;2022-12-28T03:34:33;7.60;99.90
19017;DHT22;9641;51.494;6.670;2022-12-28T03:37:04;7.70;99.90
19017;DHT22;9641;51.494;6.670;2022-12-28T03:39:41;7.70;99.90
19017;DHT22;9641;51.494;6.670;2022-12-28T03:42:13;7.70;99.90
19017;DHT22;9641;51.494;6.670;2022-12-28T03:45:05;7.70;99.90
19017;DHT22;9641;51.494;6.670;2022-12-28T03:47:37;7.80;99.90
19017;DHT22;9641;51.494;6.670;2022-12-28T03:50:08;7.80;99.90
19017;DHT22;9641;51.494;6.670;2022-12-28T03:52:35;7.80;99.90
19017;DHT22;9641;51.494;6.670;2022-12-28T03:55:04;7.80;99.90
19017;DHT22;9641;51.494;6.670;2022-12-28T03:57:33;7.70;99.90
19017;DHT22;9641;51.494;6.670;2022-12-28T04:00:03;7.70;99.90
19017;DHT22;9641;51.494;6.670;2022-12-28T04:02:41;7.80;99.90
19017;DHT22;9641;51.494;6.670;2022-12-28T04:05:10;7.90;99.90
19017;DHT22;9641;51.494;6.670;2022-12-28T04:07:39;8.00;99.90
19017;DHT22;9641;51.494;6.670;2022-12-28T04:10:07;8.00;99.90
19017;DHT22;9641;51.494;6.670;2022-12-28T04:12:34;8.00;99.90
19017;DHT22;9641;51.494;6.670;2022-12-28T04:15:33;8.00;99.90
19017;DHT22;9641;51.494;6.670;2022-12-28T04:18:00;8.20;99.90
19017;DHT22;9641;51.494;6.670;2022-12-28T04:20:29;8.20;99.90
19017;DHT22;9641;51.494;6.670;2022-12-28T04:22:57;8.20;99.90
19017;DHT22;9641;51.494;6.670;2022-12-28T04:25:24;8.30;99.90
19017;DHT22;9641;51.494;6.670;2022-12-28T04:27:51;8.30;99.90
19017;DHT22;9641;51.494;6.670;2022-12-28T04:30:54;8.40;99.90
19017;DHT22;9641;51.494;6.670;2022-12-28T04:33:21;8.50;99.90
19017;DHT22;9641;51.494;6.670;2022-12-28T04:35:50;8.50;99.90
19017;DHT22;9641;51.494;6.670;2022-12-28T04:38:18;8.40;99.90
19017;DHT22;9641;51.494;6.670;2022-12-28T04:40:45;8.30;99.90
19017;DHT22;9641;51.494;6.670;2022-12-28T04:43:12;8.20;99.90
19017;DHT22;9641;51.494;6.670;2022-12-28T04:45:39;8.00;99.90
19017;DHT22;9641;51.494;6.670;2022-12-28T04:48:06;7.90;99.90
19017;DHT22;9641;51.494;6.670;2022-12-28T04:50:33;7.80;99.90
19017;DHT22;9641;51.494;6.670;2022-12-28T04:53:03;7.70;99.90
19017;DHT22;9641;51.494;6.670;2022-12-28T04:55:30;7.70;99.90
19017;DHT22;9641;51.494;6.670;2022-12-28T04:57:57;7.70;99.90
19017;DHT22;9641;51.494;6.670;2022-12-28T05:00:24;7.70;99.90
19017;DHT22;9641;51.494;6.670;2022-12-28T05:02:50;7.70;99.90
19017;DHT22;9641;51.494;6.670;2022-12-28T05:05:17;7.70;99.90
19017;DHT22;9641;51.494;6.670;2022-12-28T05:07:44;7.80;99.90
19017;DHT22;9641;51.494;6.670;2022-12-28T05:10:12;7.80;99.90
19017;DHT22;9641;51.494;6.670;2022-12-28T05:12:39;7.80;99.90
19017;DHT22;9641;51.494;6.670;2022-12-28T05:15:07;7.90;99.90
19017;DHT22;9641;51.494;6.670;2022-12-28T05:17:34;7.90;99.90
19017;DHT22;9641;51.494;6.670;2022-12-28T05:20:02;7.90;99.90
19017;DHT22;9641;51.494;6.670;2022-12-28T05:22:29;8.00;99.90
19017;DHT22;9641;51.494;6.670;2022-12-28T05:24:56;8.00;99.90
19017;DHT22;9641;51.494;6.670;2022-12-28T05:27:24;8.00;99.90
19017;DHT22;9641;51.494;6.670;2022-12-28T05:29:51;8.10;99.90
19017;DHT22;9641;51.494;6.670;2022-12-28T05:32:18;8.10;99.90
19017;DHT22;9641;51.494;6.670;2022-12-28T05:34:45;8.10;99.90
19017;DHT22;9641;51.494;6.670;2022-12-28T05:37:12;8.10;99.90
19017;DHT22;9641;51.494;6.670;2022-12-28T05:39:39;8.10;99.90
19017;DHT22;9641;51.494;6.670;2022-12-28T05:42:05;8.20;99.90
19017;DHT22;9641;51.494;6.670;2022-12-28T05:44:34;8.20;99.90
19017;DHT22;9641;51.494;6.670;2022-12-28T05:47:01;8.10;99.90
19017;DHT22;9641;51.494;6.670;2022-12-28T05:49:28;8.00;99.90
19017;DHT22;9641;51.494;6.670;2022-12-28T05:51:55;8.00;99.90
19017;DHT22;9641;51.494;6.670;2022-12-28T05:54:21;7.90;99.90
19017;DHT22;9641;51.494;6.670;2022-12-28T05:56:49;7.90;99.90
19017;DHT22;9641;51.494;6.670;2022-12-28T05:59:17;7.90;99.90
19017;DHT22;9641;51.494;6.670;2022-12-28T06:01:45;7.90;99.90
19017;DHT22;9641;51.494;6.670;2022-12-28T06:04:14;7.90;99.90
19017;DHT22;9641;51.494;6.670;2022-12-28T06:06:42;7.90;99.90
19017;DHT22;9641;51.494;6.670;2022-12-28T06:09:09;7.90;99.90
19017;DHT22;9641;51.494;6.670;2022-12-28T06:11:37;7.90;99.90
19017;DHT22;9641;51.494;6.670;2022-12-28T06:14:04;7.90;99.90
19017;DHT22;9641;51.494;6.670;2022-12-28T06:16:33;7.90;99.90
19017;DHT22;9641;51.494;6.670;2022-12-28T06:19:05;7.90;99.90
19017;DHT22;9641;51.494;6.670;2022-12-28T06:21:33;7.90;99.90
19017;DHT22;9641;51.494;6.670;2022-12-28T06:24:01;7.90;99.90
19017;DHT22;9641;51.494;6.670;2022-12-28T06:26:30;7.90;99.90
19017;DHT22;9641;51.494;6.670;2022-12-28T06:28:57;7.90;99.90
19017;DHT22;9641;51.494;6.670;2022-12-28T06:31:27;7.90;99.90
19017;DHT22;9641;51.494;6.670;2022-12-28T06:33:56;8.00;99.90
19017;DHT22;9641;51.494;6.670;2022-12-28T06:36:26;8.00;99.90
19017;DHT22;9641;51.494;6.670;2022-12-28T06:38:56;8.00;99.90
19017;DHT22;9641;51.494;6.670;2022-12-28T06:41:24;8.00;99.90
19017;DHT22;9641;51.494;6.670;2022-12-28T06:43:51;8.00;99.90
19017;DHT22;9641;51.494;6.670;2022-12-28T06:46:20;8.00;99.90
19017;DHT22;9641;51.494;6.670;2022-12-28T06:48:48;8.00;99.90
19017;DHT22;9641;51.494;6.670;2022-12-28T06:51:17;8.00;99.90
19017;DHT22;9641;51.494;6.670;2022-12-28T06:53:48;8.00;99.90
19017;DHT22;9641;51.494;6.670;2022-12-28T06:56:16;8.00;99.90
19017;DHT22;9641;51.494;6.670;2022-12-28T06:58:44;8.00;99.90
19017;DHT22;9641;51.494;6.670;2022-12-28T07:01:13;8.00;99.90
19017;DHT22;9641;51.494;6.670;2022-12-28T07:03:40;8.00;99.90
19017;DHT22;9641;51.494;6.670;2022-12-28T07:06:08;8.00;99.90
19017;DHT22;9641;51.494;6.670;2022-12-28T07:08:35;8.10;99.90
19017;DHT22;9641;51.494;6.670;2022-12-28T07:11:04;8.10;99.90
19017;DHT22;9641;51.494;6.670;2022-12-28T07:13:32;8.10;99.90
19017;DHT22;9641;51.494;6.670;2022-12-28T07:16:01;8.10;99.90
19017;DHT22;9641;51.494;6.670;2022-12-28T07:18:29;8.10;99.90
19017;DHT22;9641;51.494;6.670;2022-12-28T07:21:00;8.10;99.90
19017;DHT22;9641;51.494;6.670;2022-12-28T07:23:27;8.10;99.90
19017;DHT22;9641;51.494;6.670;2022-12-28T07:25:56;8.10;99.90
19017;DHT22;9641;51.494;6.670;2022-12-28T07:28:25;8.10;99.90
19017;DHT22;9641;51.494;6.670;2022-12-28T07:30:51;8.10;99.90
19017;DHT22;9641;51.494;6.670;2022-12-28T07:33:18;8.10;99.90
19017;DHT22;9641;51.494;6.670;2022-12-28T07:35:46;8.10;99.90
19017;DHT22;9641;51.494;6.670;2022-12-28T07:38:13;8.20;99.90
19017;DHT22;9641;51.494;6.670;2022-12-28T07:40:40;8.10;99.90
19017;DHT22;9641;51.494;6.670;2022-12-28T07:43:07;8.20;99.90
19017;DHT22;9641;51.494;6.670;2022-12-28T07:45:37;8.20;99.90
19017;DHT22;9641;51.494;6.670;2022-12-28T07:48:05;8.20;99.90
19017;DHT22;9641;51.494;6.670;2022-12-28T07:50:31;8.20;99.90
19017;DHT22;9641;51.494;6.670;2022-12-28T07:53:00;8.20;99.90
19017;DHT22;9641;51.494;6.670;2022-12-28T07:55:27;8.20;99.90
19017;DHT22;9641;51.494;6.670;2022-12-28T07:57:56;8.20;99.90
19017;DHT22;9641;51.494;6.670;2022-12-28T08:00:23;8.20;99.90
19017;DHT22;9641;51.494;6.670;2022-12-28T08:02:55;8.20;99.90
19017;DHT22;9641;51.494;6.670;2022-12-28T08:05:23;8.30;99.90
19017;DHT22;9641;51.494;6.670;2022-12-28T08:07:49;8.30;99.90
19017;DHT22;9641;51.494;6.670;2022-12-28T08:10:17;8.30;99.90
19017;DHT22;9641;51.494;6.670;2022-12-28T08:12:43;8.40;99.90
19017;DHT22;9641;51.494;6.670;2022-12-28T08:15:10;8.40;99.90
19017;DHT22;9641;51.494;6.670;2022-12-28T08:17:37;8.40;99.90
19017;DHT22;9641;51.494;6.670;2022-12-28T08:20:06;8.40;99.90
19017;DHT22;9641;51.494;6.670;2022-12-28T08:22:33;8.50;99.90
19017;DHT22;9641;51.494;6.670;2022-12-28T08:25:00;8.50;99.90
19017;DHT22;9641;51.494;6.670;2022-12-28T08:27:27;8.50;99.90
19017;DHT22;9641;51.494;6.670;2022-12-28T08:29:54;8.50;99.90
19017;DHT22;9641;51.494;6.670;2022-12-28T08:32:23;8.60;99.90
19017;DHT22;9641;51.494;6.670;2022-12-28T08:34:50;8.60;99.90
19017;DHT22;9641;51.494;6.670;2022-12-28T08:37:21;8.60;99.90
19017;DHT22;9641;51.494;6.670;2022-12-28T08:39:50;8.70;99.90
19017;DHT22;9641;51.494;6.670;2022-12-28T08:42:17;8.70;99.90
19017;DHT22;9641;51.494;6.670;2022-12-28T08:44:45;8.80;99.90
19017;DHT22;9641;51.494;6.670;2022-12-28T08:47:45;8.80;99.90
19017;DHT22;9641;51.494;6.670;2022-12-28T08:50:16;8.80;99.90
19017;DHT22;9641;51.494;6.670;2022-12-28T08:52:49;8.90;99.90
19017;DHT22;9641;51.494;6.670;2022-12-28T08:55:17;8.90;99.90
19017;DHT22;9641;51.494;6.670;2022-12-28T08:58:13;9.00;99.90
19017;DHT22;9641;51.494;6.670;2022-12-28T09:00:47;9.10;99.90
19017;DHT22;9641;51.494;6.670;2022-12-28T09:03:19;9.10;99.90
19017;DHT22;9641;51.494;6.670;2022-12-28T09:05:55;9.20;99.90
19017;DHT22;9641;51.494;6.670;2022-12-28T09:08:23;9.20;99.90
19017;DHT22;9641;51.494;6.670;2022-12-28T09:10:50;9.30;99.90
19017;DHT22;9641;51.494;6.670;2022-12-28T09:13:18;9.30;99.90
19017;DHT22;9641;51.494;6.670;2022-12-28T09:16:08;9.40;99.90
19017;DHT22;9641;51.494;6.670;2022-12-28T09:19:03;9.40;99.90
19017;DHT22;9641;51.494;6.670;2022-12-28T09:21:33;9.40;99.90
19017;DHT22;9641;51.494;6.670;2022-12-28T09:24:03;9.40;99.90
19017;DHT22;9641;51.494;6.670;2022-12-28T09:26:33;9.50;99.90
19017;DHT22;9641;51.494;6.670;2022-12-28T09:29:02;9.50;99.90
19017;DHT22;9641;51.494;6.670;2022-12-28T09:31:31;9.50;99.90
19017;DHT22;9641;51.494;6.670;2022-12-28T09:34:08;9.50;99.90
19017;DHT22;9641;51.494;6.670;2022-12-28T09:36:39;9.60;99.90
19017;DHT22;9641;51.494;6.670;2022-12-28T09:39:10;9.60;99.90
19017;DHT22;9641;51.494;6.670;2022-12-28T09:41:42;9.60;99.90
19017;DHT22;9641;51.494;6.670;2022-12-28T09:44:38;9.70;99.90
19017;DHT22;9641;51.494;6.670;2022-12-28T09:47:25;9.70;99.90
19017;DHT22;9641;51.494;6.670;2022-12-28T09:50:16;9.80;99.90
19017;DHT22;9641;51.494;6.670;2022-12-28T09:52:58;9.80;99.90
19017;DHT22;9641;51.494;6.670;2022-12-28T09:55:37;9.80;99.90
19017;DHT22;9641;51.494;6.670;2022-12-28T09:58:13;9.80;99.90
19017;DHT22;9641;51.494;6.670;2022-12-28T10:00:42;9.90;99.90
19017;DHT22;9641;51.494;6.670;2022-12-28T10:03:16;9.90;99.90
19017;DHT22;9641;51.494;6.670;2022-12-28T10:05:45;9.80;99.90
19017;DHT22;9641;51.494;6.670;2022-12-28T10:08:15;9.80;99.90
19017;DHT22;9641;51.494;6.670;2022-12-28T10:10:44;9.90;99.90
19017;DHT22;9641;51.494;6.670;2022-12-28T10:13:17;9.90;99.90
19017;DHT22;9641;51.494;6.670;2022-12-28T10:15:48;10.00;99.90
19017;DHT22;9641;51.494;6.670;2022-12-28T10:18:21;10.00;99.90
19017;DHT22;9641;51.494;6.670;2022-12-28T10:20:49;9.90;99.90
19017;DHT22;9641;51.494;6.670;2022-12-28T10:23:20;10.00;99.90
19017;DHT22;9641;51.494;6.670;2022-12-28T10:25:50;10.00;99.90
19017;DHT22;9641;51.494;6.670;2022-12-28T10:28:20;10.00;99.90
19017;DHT22;9641;51.494;6.670;2022-12-28T10:31:01;10.00;99.90
19017;DHT22;9641;51.494;6.670;2022-12-28T10:33:29;10.00;99.90
19017;DHT22;9641;51.494;6.670;2022-12-28T10:35:56;10.10;99.90
19017;DHT22;9641;51.494;6.670;2022-12-28T10:38:28;10.10;99.90
19017;DHT22;9641;51.494;6.670;2022-12-28T10:41:02;10.10;99.90
19017;DHT22;9641;51.494;6.670;2022-12-28T10:43:36;10.20;99.90
19017;DHT22;9641;51.494;6.670;2022-12-28T10:46:14;10.10;99.90
19017;DHT22;9641;51.494;6.670;2022-12-28T10:52:03;10.20;99.90
19017;DHT22;9641;51.494;6.670;2022-12-28T10:54:39;10.20;99.90
19017;DHT22;9641;51.494;6.670;2022-12-28T10:57:31;10.20;99.90
19017;DHT22;9641;51.494;6.670;2022-12-28T11:00:18;10.30;99.90
19017;DHT22;9641;51.494;6.670;2022-12-28T11:02:46;10.40;99.90
19017;DHT22;9641;51.494;6.670;2022-12-28T11:05:19;10.40;99.90
19017;DHT22;9641;51.494;6.670;2022-12-28T11:07:47;10.40;99.90
19017;DHT22;9641;51.494;6.670;2022-12-28T11:10:22;10.40;99.90
19017;DHT22;9641;51.494;6.670;2022-12-28T11:12:56;10.50;99.90
19017;DHT22;9641;51.494;6.670;2022-12-28T11:15:40;10.50;99.90
19017;DHT22;9641;51.494;6.670;2022-12-28T11:18:14;10.50;99.90
19017;DHT22;9641;51.494;6.670;2022-12-28T11:20:44;10.50;99.90
19017;DHT22;9641;51.494;6.670;2022-12-28T11:23:15;10.50;99.90
19017;DHT22;9641;51.494;6.670;2022-12-28T11:25:44;10.50;99.90
19017;DHT22;9641;51.494;6.670;2022-12-28T11:28:14;10.60;99.90
19017;DHT22;9641;51.494;6.670;2022-12-28T11:30:43;10.60;99.90
19017;DHT22;9641;51.494;6.670;2022-12-28T11:33:25;10.60;99.90
19017;DHT22;9641;51.494;6.670;2022-12-28T11:36:13;10.60;99.90
19017;DHT22;9641;51.494;6.670;2022-12-28T11:38:42;10.50;99.90
19017;DHT22;9641;51.494;6.670;2022-12-28T11:41:41;10.50;99.90
19017;DHT22;9641;51.494;6.670;2022-12-28T11:44:51;10.50;99.90
19017;DHT22;9641;51.494;6.670;2022-12-28T11:47:25;10.40;99.90
19017;DHT22;9641;51.494;6.670;2022-12-28T11:52:57;10.50;99.90
19017;DHT22;9641;51.494;6.670;2022-12-28T11:56:04;10.50;99.90
19017;DHT22;9641;51.494;6.670;2022-12-28T11:58:44;10.50;99.90
19017;DHT22;9641;51.494;6.670;2022-12-28T12:01:41;10.50;99.90
19017;DHT22;9641;51.494;6.670;2022-12-28T12:04:38;10.50;99.90
19017;DHT22;9641;51.494;6.670;2022-12-28T12:10:12;10.60;99.90
19017;DHT22;9641;51.494;6.670;2022-12-28T12:12:47;10.60;99.90
19017;DHT22;9641;51.494;6.670;2022-12-28T12:15:18;10.60;99.90
19017;DHT22;9641;51.494;6.670;2022-12-28T12:17:50;10.70;99.90
19017;DHT22;9641;51.494;6.670;2022-12-28T12:20:25;10.70;99.90
19017;DHT22;9641;51.494;6.670;2022-12-28T12:22:57;10.70;99.90
19017;DHT22;9641;51.494;6.670;2022-12-28T12:25:34;10.70;99.90
19017;DHT22;9641;51.494;6.670;2022-12-28T12:28:08;10.70;99.90
19017;DHT22;9641;51.494;6.670;2022-12-28T12:30:37;10.60;99.90
19017;DHT22;9641;51.494;6.670;2022-12-28T12:33:12;10.60;99.90
19017;DHT22;9641;51.494;6.670;2022-12-28T12:35:48;10.60;99.90
19017;DHT22;9641;51.494;6.670;2022-12-28T12:38:30;10.50;99.90
19017;DHT22;9641;51.494;6.670;2022-12-28T12:41:16;10.40;99.90
19017;DHT22;9641;51.494;6.670;2022-12-28T12:43:57;10.30;99.90
19017;DHT22;9641;51.494;6.670;2022-12-28T12:46:51;10.20;99.90
19017;DHT22;9641;51.494;6.670;2022-12-28T12:49:53;10.20;99.90
19017;DHT22;9641;51.494;6.670;2022-12-28T12:52:31;10.20;99.90
19017;DHT22;9641;51.494;6.670;2022-12-28T12:55:11;10.30;99.90
19017;DHT22;9641;51.494;6.670;2022-12-28T12:57:52;10.30;99.90
19017;DHT22;9641;51.494;6.670;2022-12-28T13:00:26;10.30;95.20
19017;DHT22;9641;51.494;6.670;2022-12-28T13:03:13;10.30;97.70
19017;DHT22;9641;51.494;6.670;2022-12-28T13:05:49;10.20;99.90
19017;DHT22;9641;51.494;6.670;2022-12-28T13:08:21;10.20;99.90
19017;DHT22;9641;51.494;6.670;2022-12-28T13:10:50;10.20;99.90
19017;DHT22;9641;51.494;6.670;2022-12-28T13:13:26;10.20;99.90
19017;DHT22;9641;51.494;6.670;2022-12-28T13:15:58;10.30;99.90
19017;DHT22;9641;51.494;6.670;2022-12-28T13:18:26;10.40;90.70
19017;DHT22;9641;51.494;6.670;2022-12-28T13:20:56;10.50;97.40
19017;DHT22;9641;51.494;6.670;2022-12-28T13:23:24;10.40;83.60
19017;DHT22;9641;51.494;6.670;2022-12-28T13:25:53;10.40;83.30
19017;DHT22;9641;51.494;6.670;2022-12-28T13:28:22;10.50;75.40
19017;DHT22;9641;51.494;6.670;2022-12-28T13:31:05;10.50;66.70
19017;DHT22;9641;51.494;6.670;2022-12-28T13:33:33;10.50;62.80
19017;DHT22;9641;51.494;6.670;2022-12-28T13:36:11;10.50;55.60
19017;DHT22;9641;51.494;6.670;2022-12-28T13:38:38;10.50;54.00
19017;DHT22;9641;51.494;6.670;2022-12-28T13:41:16;10.50;49.40
19017;DHT22;9641;51.494;6.670;2022-12-28T13:46:59;10.50;40.90
19017;DHT22;9641;51.494;6.670;2022-12-28T13:49:32;10.60;36.10
19017;DHT22;9641;51.494;6.670;2022-12-28T13:52:08;10.60;24.60
19017;DHT22;9641;51.494;6.670;2022-12-28T13:54:45;10.60;9.90
19017;DHT22;9641;51.494;6.670;2022-12-28T13:57:19;10.60;13.20
19017;DHT22;9641;51.494;6.670;2022-12-28T13:59:50;10.60;5.60
19017;DHT22;9641;51.494;6.670;2022-12-28T14:02:20;10.60;1.00
19017;DHT22;9641;51.494;6.670;2022-12-28T14:04:50;10.60;1.00
19017;DHT22;9641;51.494;6.670;2022-12-28T14:07:29;10.60;1.00
19017;DHT22;9641;51.494;6.670;2022-12-28T14:09:58;10.60;1.00
19017;DHT22;9641;51.494;6.670;2022-12-28T14:12:26;10.60;1.00
19017;DHT22;9641;51.494;6.670;2022-12-28T14:14:54;10.60;1.00
19017;DHT22;9641;51.494;6.670;2022-12-28T14:17:22;10.60;1.00
19017;DHT22;9641;51.494;6.670;2022-12-28T14:19:51;10.70;1.00
19017;DHT22;9641;51.494;6.670;2022-12-28T14:22:42;10.70;1.00
19017;DHT22;9641;51.494;6.670;2022-12-28T14:25:16;10.60;1.00
19017;DHT22;9641;51.494;6.670;2022-12-28T14:27:58;10.60;1.00
19017;DHT22;9641;51.494;6.670;2022-12-28T14:30:30;10.70;1.00
19017;DHT22;9641;51.494;6.670;2022-12-28T14:33:10;10.60;1.00
19017;DHT22;9641;51.494;6.670;2022-12-28T14:35:48;10.60;1.00
19017;DHT22;9641;51.494;6.670;2022-12-28T14:38:19;10.60;1.00
19017;DHT22;9641;51.494;6.670;2022-12-28T14:40:52;10.70;1.00
19017;DHT22;9641;51.494;6.670;2022-12-28T14:43:24;10.60;1.00
19017;DHT22;9641;51.494;6.670;2022-12-28T14:45:52;10.60;1.00
19017;DHT22;9641;51.494;6.670;2022-12-28T14:48:22;10.60;1.00
19017;DHT22;9641;51.494;6.670;2022-12-28T14:50:57;10.60;1.00
19017;DHT22;9641;51.494;6.670;2022-12-28T14:53:30;10.70;1.00
19017;DHT22;9641;51.494;6.670;2022-12-28T14:56:01;10.70;1.00
19017;DHT22;9641;51.494;6.670;2022-12-28T14:58:32;10.70;1.00
19017;DHT22;9641;51.494;6.670;2022-12-28T15:01:07;10.60;1.00
19017;DHT22;9641;51.494;6.670;2022-12-28T15:03:50;10.70;1.00
19017;DHT22;9641;51.494;6.670;2022-12-28T15:06:25;10.70;1.00
19017;DHT22;9641;51.494;6.670;2022-12-28T15:09:00;10.70;1.00
19017;DHT22;9641;51.494;6.670;2022-12-28T15:11:31;10.70;1.00
19017;DHT22;9641;51.494;6.670;2022-12-28T15:13:58;10.70;1.00
19017;DHT22;9641;51.494;6.670;2022-12-28T15:16:25;10.70;1.00
19017;DHT22;9641;51.494;6.670;2022-12-28T15:18:52;10.70;1.00
19017;DHT22;9641;51.494;6.670;2022-12-28T15:21:21;10.70;1.00
19017;DHT22;9641;51.494;6.670;2022-12-28T15:23:50;10.70;1.00
19017;DHT22;9641;51.494;6.670;2022-12-28T15:26:23;10.70;1.00
19017;DHT22;9641;51.494;6.670;2022-12-28T15:28:53;10.70;1.00
19017;DHT22;9641;51.494;6.670;2022-12-28T15:31:27;10.70;1.00
19017;DHT22;9641;51.494;6.670;2022-12-28T15:33:54;10.70;1.00
19017;DHT22;9641;51.494;6.670;2022-12-28T15:36:23;10.70;1.00
19017;DHT22;9641;51.494;6.670;2022-12-28T15:38:59;10.70;1.00
19017;DHT22;9641;51.494;6.670;2022-12-28T15:41:44;10.70;1.00
19017;DHT22;9641;51.494;6.670;2022-12-28T15:44:12;10.70;1.00
19017;DHT22;9641;51.494;6.670;2022-12-28T15:46:42;10.70;1.00
19017;DHT22;9641;51.494;6.670;2022-12-28T15:49:11;10.70;1.00
19017;DHT22;9641;51.494;6.670;2022-12-28T15:51:40;10.70;1.00
19017;DHT22;9641;51.494;6.670;2022-12-28T15:54:07;10.70;1.00
19017;DHT22;9641;51.494;6.670;2022-12-28T15:56:37;10.70;1.00
19017;DHT22;9641;51.494;6.670;2022-12-28T15:59:11;10.60;1.00
19017;DHT22;9641;51.494;6.670;2022-12-28T16:01:40;10.70;99.90
19017;DHT22;9641;51.494;6.670;2022-12-28T16:04:07;10.70;99.90
19017;DHT22;9641;51.494;6.670;2022-12-28T16:06:34;10.70;99.90
19017;DHT22;9641;51.494;6.670;2022-12-28T16:09:02;10.70;99.90
19017;DHT22;9641;51.494;6.670;2022-12-28T16:11:29;10.70;1.00
19017;DHT22;9641;51.494;6.670;2022-12-28T16:14:01;10.70;1.00
19017;DHT22;9641;51.494;6.670;2022-12-28T16:16:31;10.70;99.90
19017;DHT22;9641;51.494;6.670;2022-12-28T16:18:58;10.70;99.90
19017;DHT22;9641;51.494;6.670;2022-12-28T16:21:27;10.70;99.90
19017;DHT22;9641;51.494;6.670;2022-12-28T16:23:57;10.70;1.00
19017;DHT22;9641;51.494;6.670;2022-12-28T16:26:29;10.70;1.00
19017;DHT22;9641;51.494;6.670;2022-12-28T16:29:07;10.80;99.90
19017;DHT22;9641;51.494;6.670;2022-12-28T16:31:38;10.80;1.00
19017;DHT22;9641;51.494;6.670;2022-12-28T16:34:11;10.80;1.00
19017;DHT22;9641;51.494;6.670;2022-12-28T16:36:39;10.80;99.90
19017;DHT22;9641;51.494;6.670;2022-12-28T16:39:12;10.80;1.00
19017;DHT22;9641;51.494;6.670;2022-12-28T16:41:41;10.80;1.00